Terminal Aerodrome Forecast
Issued by NWS Charleston, WV

Current Version | Previous Version | Graphics & Text | Print | Product List | Glossary On
Versions: 1 2 3 4 5 6 7 8 9 10 11 12 13 14 15 16 17 18 19 20 21 22 23 24 25 26 27
135
FTUS41 KRLX 251122
TAFEKN
TAF
KEKN 251122Z 2512/2612 VRB03KT 5SM BR SCT150
     FM251300 VRB03KT P6SM SCT150
     FM251700 27005KT P6SM VCTS BKN045CB
     FM260000 28004KT P6SM SHRA VCTS BKN045CB
     FM260300 00000KT P6SM BKN045
     FM260900 00000KT 5SM BR BKN030=

USA.gov is the U.S. government's official web portal to all federal, state and local government web resources and services.